Aérodrome :
LOGIN :

S'inscrire | Disclaimer

   EN    FR    IT 

 










Légende :    VFR   VFR Marginal   IFR   IFR Intensif   IFR Très Intensif
Visi : 
Plafond : 
>= 8 km
>= 3000ft
5 à 8 km
1000 à 3000 ft
1500m à 5 km
500 à 1000 ft
800 à 1500m
200 à 500 ft
< 800m
< 200 ft
Symboles :   Orages  Brouillard  Fortes neiges  Fortes précipitations  Vent > 20 kt
SIGMETs :   Divers  Orages  Givrage  Turbulence  Onde Orograph.  Cendres Volcan.







- Altitude de l'aérodrome : 512 ft
- Code IATA : URO
- Voir les cartes d'approche


LFOP - Rouen Vallée de Seine

METARs EXPIRÉS :
  • 241430Z AUTO 28008KT 210V330 //// R22///// // OVC045 23/13 Q1017
  • 241400Z AUTO 26007KT 230V290 //// R22///// // OVC044 23/12 Q1017
  • 241330Z AUTO 25008KT 220V300 //// R22///// // OVC043 23/12 Q1017
  • 241300Z AUTO 25011KT 220V280 //// R22///// // BKN042 22/11 Q1018
  • 241230Z AUTO 26009KT 230V300 //// R22///// // BKN040 23/12 Q1018
  • 241200Z AUTO 26009KT 220V290 //// R22///// // BKN041 23/12 Q1018

Prévision TAF périmée.
ATIS : +33 2 35 80 80 34
Météo : +33 2 32 86 52 80
Pas de NOTAMs connus pour ce terrain.



MET'MAP, la Météo Aéronautique d'un coup d'oeil ! - Copyright ORBIFLY Décembre 2007 - Disclaimer

ORBIFLY MET'MAP TEAM :

Programmation & Développement : Alexandra Zaïnal
Conception & Développement : Baudouin d'Aumeries
Co-Programmation & Développement : Marc-Olivier Méhu
Soutien technique & logistique : Manuel Goepfert

Contact : metmap@orbifly.com




SOURCES & CREDITS :

   NOAA